sensor_id;sensor_type;location;lat;lon;timestamp;pressure;altitude;pressure_sealevel;temperature;humidity
34893;BME280;21106;52.240;20.902;2023-06-24T00:34:00;100199.30;;;20.70;84.46
34893;BME280;21106;52.240;20.902;2023-06-24T00:39:07;100208.63;;;20.69;84.46
34893;BME280;21106;52.240;20.902;2023-06-24T00:44:15;100219.30;;;20.73;84.49
34893;BME280;21106;52.240;20.902;2023-06-24T00:49:21;100225.08;;;20.71;84.49
34893;BME280;21106;52.240;20.902;2023-06-24T00:59:48;100229.42;;;20.60;84.47
34893;BME280;21106;52.240;20.902;2023-06-24T01:04:58;100239.06;;;20.56;84.45
34893;BME280;21106;52.240;20.902;2023-06-24T01:31:59;100257.59;;;20.33;84.43
34893;BME280;21106;52.240;20.902;2023-06-24T01:37:14;100253.53;;;20.35;84.44
34893;BME280;21106;52.240;20.902;2023-06-24T01:42:23;100252.78;;;20.26;84.44
34893;BME280;21106;52.240;20.902;2023-06-24T01:58:32;100252.77;;;20.03;84.40
34893;BME280;21106;52.240;20.902;2023-06-24T02:03:42;100252.52;;;19.90;84.47
34893;BME280;21106;52.240;20.902;2023-06-24T02:36:56;100279.32;;;19.36;84.32
34893;BME280;21106;52.240;20.902;2023-06-24T02:42:13;100283.26;;;19.27;84.31
34893;BME280;21106;52.240;20.902;2023-06-24T02:47:24;100290.17;;;19.23;84.31
34893;BME280;21106;52.240;20.902;2023-06-24T02:52:33;100286.61;;;19.22;84.31
34893;BME280;21106;52.240;20.902;2023-06-24T02:57:47;100300.05;;;19.33;84.32
34893;BME280;21106;52.240;20.902;2023-06-24T03:03:53;100306.97;;;19.46;84.33
34893;BME280;21106;52.240;20.902;2023-06-24T03:09:18;100306.70;;;19.58;84.34
34893;BME280;21106;52.240;20.902;2023-06-24T03:14:25;100306.59;;;19.69;84.35
34893;BME280;21106;52.240;20.902;2023-06-24T03:19:32;100322.22;;;19.81;84.76
34893;BME280;21106;52.240;20.902;2023-06-24T03:24:38;100319.59;;;19.90;84.54
34893;BME280;21106;52.240;20.902;2023-06-24T03:29:45;100324.64;;;20.09;84.74
34893;BME280;21106;52.240;20.902;2023-06-24T03:34:52;100320.23;;;20.21;84.46
34893;BME280;21106;52.240;20.902;2023-06-24T03:45:26;100327.15;;;20.47;84.51
34893;BME280;21106;52.240;20.902;2023-06-24T03:50:33;100331.04;;;20.65;84.46
34893;BME280;21106;52.240;20.902;2023-06-24T03:55:40;100337.95;;;20.92;84.51
34893;BME280;21106;52.240;20.902;2023-06-24T04:00:47;100334.54;;;21.00;84.48
34893;BME280;21106;52.240;20.902;2023-06-24T04:27:58;100348.72;;;22.04;84.59
34893;BME280;21106;52.240;20.902;2023-06-24T04:33:04;100343.27;;;22.49;84.64
34893;BME280;21106;52.240;20.902;2023-06-24T04:38:11;100338.95;;;23.00;84.71
34893;BME280;21106;52.240;20.902;2023-06-24T04:43:35;100329.34;;;23.12;84.70
34893;BME280;21106;52.240;20.902;2023-06-24T04:54:14;100340.32;;;22.48;84.62
34893;BME280;21106;52.240;20.902;2023-06-24T05:45:22;100391.65;;;23.80;84.76
34893;BME280;21106;52.240;20.902;2023-06-24T05:50:31;100383.94;;;24.17;84.81
34893;BME280;21106;52.240;20.902;2023-06-24T06:34:51;100399.50;;;32.01;85.56
34893;BME280;21106;52.240;20.902;2023-06-24T06:40:05;100395.41;;;32.80;85.65
34893;BME280;21106;52.240;20.902;2023-06-24T06:45:26;100398.95;;;33.17;85.67
34893;BME280;21106;52.240;20.902;2023-06-24T06:50:57;100404.65;;;32.37;85.58
34893;BME280;21106;52.240;20.902;2023-06-24T07:01:14;100412.72;;;33.29;85.67
34893;BME280;21106;52.240;20.902;2023-06-24T07:06:41;100406.92;;;34.01;85.77
34893;BME280;21106;52.240;20.902;2023-06-24T07:11:52;100406.02;;;34.69;85.80
34893;BME280;21106;52.240;20.902;2023-06-24T07:17:18;100400.80;;;35.38;85.89
34893;BME280;21106;52.240;20.902;2023-06-24T07:22:28;100393.76;;;35.06;86.02
34893;BME280;21106;52.240;20.902;2023-06-24T07:28:07;100392.55;;;34.22;85.76
34893;BME280;21106;52.240;20.902;2023-06-24T07:33:29;100393.01;;;33.02;85.65
34893;BME280;21106;52.240;20.902;2023-06-24T08:23:26;100417.44;;;29.33;85.38
34893;BME280;21106;52.240;20.902;2023-06-24T08:28:32;100423.31;;;29.32;85.30
34893;BME280;21106;52.240;20.902;2023-06-24T08:33:38;100429.02;;;29.08;85.28
34893;BME280;21106;52.240;20.902;2023-06-24T08:38:44;100425.53;;;28.84;85.35
34893;BME280;21106;52.240;20.902;2023-06-24T08:43:51;100427.24;;;28.72;85.24
34893;BME280;21106;52.240;20.902;2023-06-24T08:49:30;100432.59;;;28.67;85.27
34893;BME280;21106;52.240;20.902;2023-06-24T08:54:39;100437.60;;;28.44;85.26
34893;BME280;21106;52.240;20.902;2023-06-24T08:59:47;100443.25;;;28.56;85.24
34893;BME280;21106;52.240;20.902;2023-06-24T09:04:53;100447.78;;;28.55;85.22
34893;BME280;21106;52.240;20.902;2023-06-24T09:10:00;100460.30;;;28.49;85.24
34893;BME280;21106;52.240;20.902;2023-06-24T09:15:07;100451.28;;;28.17;85.37
34893;BME280;21106;52.240;20.902;2023-06-24T09:20:20;100453.56;;;27.89;85.28
34893;BME280;21106;52.240;20.902;2023-06-24T10:33:28;100449.46;;;27.10;85.13
34893;BME280;21106;52.240;20.902;2023-06-24T10:44:15;100447.81;;;27.19;85.44
34893;BME280;21106;52.240;20.902;2023-06-24T10:49:21;100443.09;;;27.44;85.31
34893;BME280;21106;52.240;20.902;2023-06-24T10:54:28;100444.91;;;27.80;85.51
34893;BME280;21106;52.240;20.902;2023-06-24T10:59:35;100452.88;;;27.66;85.21
34893;BME280;21106;52.240;20.902;2023-06-24T11:05:02;100448.89;;;27.56;85.32
34893;BME280;21106;52.240;20.902;2023-06-24T11:10:12;100451.48;;;27.17;85.12
34893;BME280;21106;52.240;20.902;2023-06-24T11:15:18;100451.03;;;26.95;85.09
34893;BME280;21106;52.240;20.902;2023-06-24T11:20:25;100456.75;;;26.59;85.11
34893;BME280;21106;52.240;20.902;2023-06-24T11:25:31;100458.52;;;26.58;85.20
34893;BME280;21106;52.240;20.902;2023-06-24T11:30:39;100467.70;;;26.41;85.23
34893;BME280;21106;52.240;20.902;2023-06-24T11:41:37;100467.22;;;26.60;85.11
34893;BME280;21106;52.240;20.902;2023-06-24T11:46:44;100468.36;;;26.62;85.11
34893;BME280;21106;52.240;20.902;2023-06-24T11:51:51;100472.51;;;26.64;85.07
34893;BME280;21106;52.240;20.902;2023-06-24T11:56:58;100480.27;;;26.67;85.08
34893;BME280;21106;52.240;20.902;2023-06-24T12:02:04;100477.49;;;26.65;85.14
34893;BME280;21106;52.240;20.902;2023-06-24T12:07:31;100477.02;;;26.53;85.08
34893;BME280;21106;52.240;20.902;2023-06-24T12:12:51;100478.86;;;26.34;85.04
34893;BME280;21106;52.240;20.902;2023-06-24T12:18:00;100478.00;;;26.40;85.14
34893;BME280;21106;52.240;20.902;2023-06-24T12:23:14;100484.30;;;26.45;85.07
34893;BME280;21106;52.240;20.902;2023-06-24T12:28:24;100481.83;;;26.47;85.14
34893;BME280;21106;52.240;20.902;2023-06-24T12:33:51;100484.89;;;26.47;85.08
34893;BME280;21106;52.240;20.902;2023-06-24T12:40:29;100485.14;;;26.46;85.19
34893;BME280;21106;52.240;20.902;2023-06-24T12:45:40;100483.22;;;26.47;85.06
34893;BME280;21106;52.240;20.902;2023-06-24T12:50:52;100490.48;;;26.53;85.43
34893;BME280;21106;52.240;20.902;2023-06-24T12:56:32;100489.63;;;26.67;85.16
34893;BME280;21106;52.240;20.902;2023-06-24T13:01:38;100479.89;;;26.84;85.11
34893;BME280;21106;52.240;20.902;2023-06-24T13:06:44;100480.54;;;27.16;85.11
34893;BME280;21106;52.240;20.902;2023-06-24T13:11:51;100473.38;;;27.34;85.11
34893;BME280;21106;52.240;20.902;2023-06-24T13:16:57;100477.49;;;27.15;85.21
34893;BME280;21106;52.240;20.902;2023-06-24T13:22:03;100478.19;;;27.01;85.12
34893;BME280;21106;52.240;20.902;2023-06-24T13:27:09;100476.87;;;26.77;85.77
34893;BME280;21106;52.240;20.902;2023-06-24T13:32:16;100478.64;;;26.44;85.42
34893;BME280;21106;52.240;20.902;2023-06-24T13:37:22;100475.77;;;26.53;85.08
34893;BME280;21106;52.240;20.902;2023-06-24T13:42:31;100478.81;;;26.76;85.11
34893;BME280;21106;52.240;20.902;2023-06-24T13:47:38;100479.94;;;26.64;85.20
34893;BME280;21106;52.240;20.902;2023-06-24T13:53:04;100478.08;;;26.22;85.81
34893;BME280;21106;52.240;20.902;2023-06-24T14:04:45;100476.06;;;26.32;85.17
34893;BME280;21106;52.240;20.902;2023-06-24T14:09:56;100475.98;;;26.35;85.39
34893;BME280;21106;52.240;20.902;2023-06-24T14:20:32;100482.44;;;26.26;85.45
34893;BME280;21106;52.240;20.902;2023-06-24T14:26:00;100481.28;;;26.17;85.72
34893;BME280;21106;52.240;20.902;2023-06-24T14:31:40;100484.50;;;25.99;85.51
34893;BME280;21106;52.240;20.902;2023-06-24T14:45:02;100480.13;;;25.36;85.45
34893;BME280;21106;52.240;20.902;2023-06-24T15:21:06;100472.58;;;23.93;84.85
34893;BME280;21106;52.240;20.902;2023-06-24T15:42:57;100456.82;;;23.41;84.72
34893;BME280;21106;52.240;20.902;2023-06-24T16:05:09;100460.16;;;23.61;84.91
34893;BME280;21106;52.240;20.902;2023-06-24T16:10:19;100464.45;;;23.72;84.77
34893;BME280;21106;52.240;20.902;2023-06-24T16:15:25;100461.45;;;23.83;84.77
34893;BME280;21106;52.240;20.902;2023-06-24T16:41:42;100459.05;;;24.28;84.80
34893;BME280;21106;52.240;20.902;2023-06-24T16:47:00;100460.27;;;24.44;84.82
34893;BME280;21106;52.240;20.902;2023-06-24T16:52:45;100451.95;;;24.62;84.84
34893;BME280;21106;52.240;20.902;2023-06-24T16:58:21;100436.96;;;24.76;84.84
34893;BME280;21106;52.240;20.902;2023-06-24T20:24:41;100425.40;;;21.64;84.55
34893;BME280;21106;52.240;20.902;2023-06-24T20:46:58;100428.01;;;21.46;84.54
34893;BME280;21106;52.240;20.902;2023-06-24T21:25:19;100430.78;;;21.33;84.52
34893;BME280;21106;52.240;20.902;2023-06-24T22:33:53;100464.73;;;19.93;84.54
34893;BME280;21106;52.240;20.902;2023-06-24T22:39:08;100454.55;;;19.81;84.58
34893;BME280;21106;52.240;20.902;2023-06-24T22:44:22;100459.03;;;19.75;84.70
34893;BME280;21106;52.240;20.902;2023-06-24T22:55:29;100455.06;;;19.78;84.89
34893;BME280;21106;52.240;20.902;2023-06-24T23:01:12;100459.03;;;19.75;84.70
34893;BME280;21106;52.240;20.902;2023-06-24T23:07:09;100451.29;;;19.76;85.16
34893;BME280;21106;52.240;20.902;2023-06-24T23:12:18;100450.67;;;19.76;84.52
34893;BME280;21106;52.240;20.902;2023-06-24T23:17:36;100442.91;;;19.77;84.80
34893;BME280;21106;52.240;20.902;2023-06-24T23:22:55;100437.21;;;19.78;84.50
34893;BME280;21106;52.240;20.902;2023-06-24T23:28:04;100436.83;;;19.75;85.25
34893;BME280;21106;52.240;20.902;2023-06-24T23:43:39;100428.02;;;19.63;84.34
34893;BME280;21106;52.240;20.902;2023-06-24T23:48:45;100431.10;;;19.50;84.34
34893;BME280;21106;52.240;20.902;2023-06-24T23:53:53;100425.21;;;19.43;84.38
34893;BME280;21106;52.240;20.902;2023-06-24T23:59:04;100426.05;;;19.37;84.31
